createdAt,value
2019-02-18T00:03:06.762Z,1023.37
2019-02-18T00:08:06.626Z,1023.39
2019-02-18T00:13:06.787Z,1023.42
2019-02-18T00:17:07.390Z,1023.44
2019-02-18T00:22:07.548Z,1023.4
2019-02-18T00:27:07.347Z,1023.3
2019-02-18T00:32:07.048Z,1023.32
2019-02-18T00:37:07.859Z,1023.22
2019-02-18T00:42:07.190Z,1023.24
2019-02-18T00:47:07.272Z,1023.25
2019-02-18T00:52:07.089Z,1023.25
2019-02-18T00:56:07.983Z,1023.2
2019-02-18T01:01:07.153Z,1023.26
2019-02-18T01:06:07.965Z,1023.38
2019-02-18T01:11:07.199Z,1023.38
2019-02-18T01:16:07.687Z,1023.29
2019-02-18T01:21:07.577Z,1023.21
2019-02-18T01:26:07.237Z,1023.24
2019-02-18T01:30:08.744Z,1023.13
2019-02-18T01:35:08.177Z,1023.12
2019-02-18T01:40:07.281Z,1023.14
2019-02-18T01:45:09.042Z,1023.03
2019-02-18T01:50:07.273Z,1023.04
2019-02-18T01:55:07.140Z,1022.94
2019-02-18T02:00:09.812Z,1022.9
2019-02-18T02:05:10.623Z,1022.85
2019-02-18T02:09:10.027Z,1022.8
2019-02-18T02:14:09.142Z,1022.8
2019-02-18T02:19:07.467Z,1022.86
2019-02-18T02:24:07.255Z,1022.85
2019-02-18T02:29:08.043Z,1022.81
2019-02-18T02:34:07.709Z,1022.79
2019-02-18T02:39:07.825Z,1022.71
2019-02-18T02:43:06.679Z,1022.7
2019-02-18T02:48:06.831Z,1022.68
2019-02-18T02:53:06.647Z,1022.61
2019-02-18T02:58:06.413Z,1022.68
2019-02-18T03:03:07.146Z,1022.58
2019-02-18T03:08:17.103Z,1022.49
2019-02-18T03:13:07.369Z,1022.51
2019-02-18T03:18:07.134Z,1022.55
2019-02-18T03:22:06.635Z,1022.53
2019-02-18T03:27:06.448Z,1022.54
2019-02-18T03:32:06.703Z,1022.57
2019-02-18T03:37:07.238Z,1022.57
2019-02-18T03:42:07.468Z,1022.59
2019-02-18T03:47:07.988Z,1022.62
2019-02-18T03:52:07.817Z,1022.61
2019-02-18T03:57:07.707Z,1022.67
2019-02-18T04:01:07.804Z,1022.6
2019-02-18T04:06:07.827Z,1022.59
2019-02-18T04:11:07.229Z,1022.53
2019-02-18T04:16:08.004Z,1022.56
2019-02-18T04:21:07.844Z,1022.57
2019-02-18T04:26:07.644Z,1022.63
2019-02-18T04:31:06.882Z,1022.62
2019-02-18T04:35:06.354Z,1022.6
2019-02-18T04:40:07.388Z,1022.64
2019-02-18T04:45:07.915Z,1022.62
2019-02-18T04:50:07.856Z,1022.69
2019-02-18T04:55:06.686Z,1022.63
2019-02-18T05:00:10.013Z,1022.61
2019-02-18T05:05:07.148Z,1022.67
2019-02-18T05:09:07.575Z,1022.62
2019-02-18T05:14:06.350Z,1022.62
2019-02-18T05:19:07.156Z,1022.58
2019-02-18T05:24:06.084Z,1022.56
2019-02-18T05:29:07.703Z,1022.56
2019-02-18T05:34:07.266Z,1022.61
2019-02-18T05:39:19.451Z,1022.54
2019-02-18T05:43:07.446Z,1022.58
2019-02-18T05:48:07.546Z,1022.56
2019-02-18T05:53:07.349Z,1022.53
2019-02-18T05:58:07.062Z,1022.61
2019-02-18T06:03:06.198Z,1022.63
2019-02-18T06:08:07.039Z,1022.65
2019-02-18T06:13:06.286Z,1022.7
2019-02-18T06:18:06.940Z,1022.69
2019-02-18T06:22:07.825Z,1022.73
2019-02-18T06:27:07.655Z,1022.7
2019-02-18T06:32:06.146Z,1022.73
2019-02-18T06:37:06.891Z,1022.71
2019-02-18T06:42:06.174Z,1022.78
2019-02-18T06:47:06.786Z,1022.83
2019-02-18T06:52:06.625Z,1022.78
2019-02-18T06:57:06.445Z,1022.85
2019-02-18T07:01:06.644Z,1022.95
2019-02-18T07:06:06.445Z,1022.97
2019-02-18T07:11:06.817Z,1022.92
2019-02-18T07:16:06.618Z,1022.86
2019-02-18T07:21:08.139Z,1022.87
2019-02-18T07:26:07.903Z,1022.76
2019-02-18T07:31:06.423Z,1022.77
2019-02-18T07:36:07.147Z,1022.8
2019-02-18T07:41:06.103Z,1022.79
2019-02-18T07:45:07.821Z,1022.8
2019-02-18T07:50:07.293Z,1022.85
2019-02-18T07:55:06.976Z,1022.76
2019-02-18T08:00:09.965Z,1022.76
2019-02-18T08:05:07.191Z,1022.76
2019-02-18T08:10:13.422Z,1022.71
2019-02-18T08:15:08.523Z,1022.74
2019-02-18T08:19:06.588Z,1022.61
2019-02-18T08:24:06.644Z,1022.59
2019-02-18T08:29:06.191Z,1022.54
2019-02-18T08:34:06.745Z,1022.47
2019-02-18T08:39:06.778Z,1022.47
2019-02-18T08:44:06.517Z,1022.65
2019-02-18T08:49:06.758Z,1022.6
2019-02-18T08:54:06.635Z,1022.56
2019-02-18T08:59:07.449Z,1022.58
2019-02-18T09:03:06.359Z,1022.62
2019-02-18T09:08:06.974Z,1022.55
2019-02-18T09:13:06.931Z,1022.56
2019-02-18T09:18:06.410Z,1022.6
2019-02-18T09:23:06.130Z,1022.54
2019-02-18T09:28:06.815Z,1022.53
2019-02-18T09:33:06.336Z,1022.47
2019-02-18T09:37:07.352Z,1022.45
2019-02-18T09:42:08.221Z,1022.35
2019-02-18T09:43:06.322Z,1022.35
2019-02-18T09:47:07.927Z,1022.34
2019-02-18T09:52:07.596Z,1022.37
2019-02-18T09:57:07.175Z,1022.37
2019-02-18T10:02:07.012Z,1022.3
2019-02-18T10:07:06.573Z,1022.3
2019-02-18T10:12:06.724Z,1022.27
2019-02-18T10:16:07.048Z,1022.34
2019-02-18T10:21:07.832Z,1022.23
2019-02-18T10:26:07.674Z,1022.26
2019-02-18T10:31:07.352Z,1022.17
2019-02-18T10:36:06.995Z,1022.13
2019-02-18T10:41:08.291Z,1022.12
2019-02-18T10:46:07.134Z,1022.03
2019-02-18T10:51:07.861Z,1021.96
2019-02-18T10:56:07.651Z,1021.92
2019-02-18T11:00:09.132Z,1021.84
2019-02-18T11:05:07.654Z,1021.8
2019-02-18T11:10:07.763Z,1021.74
2019-02-18T11:15:08.516Z,1021.59
2019-02-18T11:20:07.385Z,1021.6
2019-02-18T11:25:07.131Z,1021.53
2019-02-18T11:30:08.389Z,1021.54
2019-02-18T11:35:07.205Z,1021.46
2019-02-18T11:39:07.371Z,1021.36
2019-02-18T11:44:06.807Z,1021.24
2019-02-18T11:49:07.571Z,1021.11
2019-02-18T11:54:08.135Z,1021.1
2019-02-18T11:59:06.082Z,1021.02
2019-02-18T12:04:07.231Z,1020.98
2019-02-18T12:09:06.628Z,1020.92
2019-02-18T12:14:07.525Z,1020.89
2019-02-18T12:19:06.881Z,1020.84
2019-02-18T12:23:07.801Z,1020.81
2019-02-18T12:28:06.494Z,1020.76
2019-02-18T12:33:07.216Z,1020.65
2019-02-18T12:38:06.040Z,1020.59
2019-02-18T12:43:07.439Z,1020.47
2019-02-18T12:48:06.859Z,1020.47
2019-02-18T12:53:08.000Z,1020.44
2019-02-18T12:58:06.735Z,1020.33
2019-02-18T13:03:08.140Z,1020.26
2019-02-18T13:07:07.134Z,1020.18
2019-02-18T13:12:06.447Z,1020.11
2019-02-18T13:17:07.274Z,1020.07
2019-02-18T13:22:06.193Z,1020.01
2019-02-18T13:27:07.136Z,1019.98
2019-02-18T13:32:06.997Z,1019.96
2019-02-18T13:37:07.941Z,1019.88
2019-02-18T13:42:07.558Z,1019.83
2019-02-18T13:46:07.683Z,1019.75
2019-02-18T13:51:06.526Z,1019.66
2019-02-18T13:56:07.794Z,1019.69
2019-02-18T14:01:06.199Z,1019.69
2019-02-18T14:06:07.532Z,1019.61
2019-02-18T14:11:06.774Z,1019.49
2019-02-18T14:16:07.825Z,1019.47
2019-02-18T14:21:06.724Z,1019.43
2019-02-18T14:25:08.011Z,1019.44
2019-02-18T14:30:08.660Z,1019.38
2019-02-18T14:31:06.271Z,1019.38
2019-02-18T14:35:07.491Z,1019.4
2019-02-18T14:40:06.694Z,1019.22
2019-02-18T14:45:08.972Z,1019.27
2019-02-18T14:50:06.970Z,1019.26
2019-02-18T14:55:08.074Z,1019.29
2019-02-18T15:00:08.649Z,1019.26
2019-02-18T15:04:08.434Z,1019.21
2019-02-18T15:09:06.759Z,1019.27
2019-02-18T15:14:08.090Z,1019.23
2019-02-18T15:19:06.842Z,1019.09
2019-02-18T15:24:07.937Z,1019.12
2019-02-18T15:29:06.667Z,1019.05
2019-02-18T15:34:07.345Z,1019.03
2019-02-18T15:39:06.688Z,1018.97
2019-02-18T15:43:08.757Z,1018.91
2019-02-18T15:48:06.660Z,1018.88
2019-02-18T15:53:06.272Z,1018.8
2019-02-18T15:58:07.505Z,1018.81
2019-02-18T16:03:06.675Z,1018.81
2019-02-18T16:08:06.653Z,1018.83
2019-02-18T16:12:06.187Z,1018.8
2019-02-18T16:17:07.642Z,1018.78
2019-02-18T16:22:06.573Z,1018.7
2019-02-18T16:27:06.103Z,1018.74
2019-02-18T16:32:09.155Z,1018.72
2019-02-18T16:37:08.004Z,1018.81
2019-02-18T16:41:07.220Z,1018.85
2019-02-18T16:46:07.306Z,1018.96
2019-02-18T16:51:07.448Z,1018.95
2019-02-18T16:56:06.271Z,1019
2019-02-18T17:01:06.140Z,1018.95
2019-02-18T17:06:07.132Z,1018.98
2019-02-18T17:11:06.284Z,1019.02
2019-02-18T17:15:08.556Z,1018.99
2019-02-18T17:20:07.650Z,1018.93
2019-02-18T17:21:06.157Z,1018.93
2019-02-18T17:25:08.368Z,1018.92
2019-02-18T17:30:07.483Z,1018.86
2019-02-18T17:35:07.721Z,1018.81
2019-02-18T17:40:06.995Z,1018.84
2019-02-18T17:45:09.241Z,1018.79
2019-02-18T17:49:06.398Z,1018.8
2019-02-18T17:54:08.343Z,1018.77
2019-02-18T17:59:06.217Z,1018.68
2019-02-18T18:04:07.191Z,1018.54
2019-02-18T18:09:07.588Z,1018.46
2019-02-18T18:14:06.339Z,1018.45
2019-02-18T18:19:10.490Z,1018.45
2019-02-18T18:23:07.465Z,1018.38
2019-02-18T18:28:06.246Z,1018.42
2019-02-18T18:33:08.756Z,1018.4
2019-02-18T18:38:06.962Z,1018.42
2019-02-18T18:43:07.560Z,1018.38
2019-02-18T18:48:06.038Z,1018.41
2019-02-18T18:53:07.414Z,1018.32
2019-02-18T18:57:08.134Z,1018.27
2019-02-18T19:02:07.383Z,1018.22
2019-02-18T19:07:06.136Z,1018.31
2019-02-18T19:12:07.515Z,1018.29
2019-02-18T19:17:06.923Z,1018.28
2019-02-18T19:22:07.705Z,1018.27
2019-02-18T19:27:06.488Z,1018.27
2019-02-18T19:31:06.944Z,1018.26
2019-02-18T19:36:08.252Z,1018.2
2019-02-18T19:41:06.442Z,1018.13
2019-02-18T19:46:07.817Z,1018.09
2019-02-18T19:51:06.570Z,1017.99
2019-02-18T19:56:08.289Z,1018.04
2019-02-18T20:01:07.796Z,1017.97
2019-02-18T20:05:07.740Z,1018.05
2019-02-18T20:10:08.209Z,1018.02
2019-02-18T20:15:07.928Z,1018
2019-02-18T20:20:07.446Z,1017.85
2019-02-18T20:25:06.613Z,1017.78
2019-02-18T20:30:09.089Z,1017.74
2019-02-18T20:35:06.126Z,1017.8
2019-02-18T20:40:07.700Z,1017.76
2019-02-18T20:44:08.763Z,1017.72
2019-02-18T20:49:06.418Z,1017.75
2019-02-18T20:54:07.373Z,1017.72
2019-02-18T20:59:06.163Z,1017.68
2019-02-18T21:04:06.207Z,1017.7
2019-02-18T21:09:07.542Z,1017.7
2019-02-18T21:14:06.253Z,1017.73
2019-02-18T21:18:06.665Z,1017.66
2019-02-18T21:23:07.931Z,1017.67
2019-02-18T21:24:06.018Z,1017.67
2019-02-18T21:28:07.012Z,1017.73
2019-02-18T21:33:07.868Z,1017.66
2019-02-18T21:38:06.659Z,1017.62
2019-02-18T21:43:07.219Z,1017.56
2019-02-18T21:48:06.630Z,1017.51
2019-02-18T21:53:07.237Z,1017.5
2019-02-18T21:58:06.151Z,1017.46
2019-02-18T22:02:07.750Z,1017.56
2019-02-18T22:07:06.498Z,1017.68
2019-02-18T22:12:07.519Z,1017.78
2019-02-18T22:17:06.224Z,1017.75
2019-02-18T22:22:07.205Z,1017.78
2019-02-18T22:27:06.987Z,1017.64
2019-02-18T22:32:07.434Z,1017.66
2019-02-18T22:36:07.240Z,1017.76
2019-02-18T22:41:06.302Z,1017.69
2019-02-18T22:46:07.950Z,1017.62
2019-02-18T22:51:06.722Z,1017.63
2019-02-18T22:56:07.650Z,1017.71
2019-02-18T23:01:07.454Z,1017.68
2019-02-18T23:06:06.256Z,1017.73
2019-02-18T23:10:07.805Z,1017.69
2019-02-18T23:15:08.407Z,1017.66
2019-02-18T23:16:07.180Z,1017.66
2019-02-18T23:20:07.726Z,1017.61
2019-02-18T23:25:06.458Z,1017.56
2019-02-18T23:30:09.206Z,1017.62
2019-02-18T23:35:06.359Z,1017.55
2019-02-18T23:40:07.795Z,1017.52
2019-02-18T23:45:07.574Z,1017.59
2019-02-18T23:49:08.263Z,1017.62
2019-02-18T23:54:06.106Z,1017.47
2019-02-18T23:59:07.957Z,1017.45
